createdAt,value
2023-05-07T00:02:13.343Z,101354.00
2023-05-07T00:07:15.918Z,101351.00
2023-05-07T00:12:19.420Z,101335.94
2023-05-07T00:17:23.320Z,101337.28
2023-05-07T00:22:25.998Z,101332.19
2023-05-07T00:27:28.565Z,101337.41
2023-05-07T00:32:32.482Z,101324.78
2023-05-07T00:37:35.046Z,101325.13
2023-05-07T00:42:38.231Z,101326.94
2023-05-07T00:47:43.385Z,101322.81
2023-05-07T00:52:46.344Z,101316.16
2023-05-07T00:57:49.457Z,101314.34
2023-05-07T01:02:54.285Z,101310.94
2023-05-07T01:07:58.899Z,101306.44
2023-05-07T01:13:02.197Z,101275.75
2023-05-07T01:18:06.709Z,101300.97
2023-05-07T01:23:13.243Z,101303.28
2023-05-07T01:28:16.455Z,101301.25
2023-05-07T01:33:23.285Z,101296.63
2023-05-07T01:38:28.058Z,101304.88
2023-05-07T01:43:31.443Z,101304.84
2023-05-07T01:55:22.792Z,101311.41
2023-05-07T02:00:25.907Z,101310.19
2023-05-07T02:05:28.626Z,101308.84
2023-05-07T02:10:37.918Z,101313.09
2023-05-07T02:15:42.318Z,101294.41
2023-05-07T02:20:44.945Z,101303.03
2023-05-07T02:25:48.876Z,101304.16
2023-05-07T02:30:51.495Z,101311.41
2023-05-07T02:35:54.141Z,101293.84
2023-05-07T02:40:58.547Z,101295.41
2023-05-07T02:46:05.686Z,101300.00
2023-05-07T02:51:10.453Z,101301.72
2023-05-07T02:56:17.415Z,101297.34
2023-05-07T03:01:20.066Z,101301.09
2023-05-07T03:06:29.678Z,101301.16
2023-05-07T03:11:33.605Z,101308.72
2023-05-07T03:16:36.364Z,101315.91
2023-05-07T03:21:39.592Z,101303.16
2023-05-07T03:26:43.991Z,101302.22
2023-05-07T03:31:47.115Z,101300.59
2023-05-07T03:36:50.008Z,101218.34
2023-05-07T03:41:54.768Z,101297.09
2023-05-07T03:46:57.964Z,101297.94
2023-05-07T03:52:00.820Z,101296.84
2023-05-07T03:57:05.070Z,101297.06
2023-05-07T04:02:07.828Z,101302.84
2023-05-07T04:07:11.096Z,101317.38
2023-05-07T04:12:19.319Z,101312.34
2023-05-07T04:17:22.054Z,101312.63
2023-05-07T04:22:24.703Z,101310.75
2023-05-07T04:27:29.133Z,101319.41
2023-05-07T04:32:32.701Z,101316.72
2023-05-07T04:37:35.955Z,101319.38
2023-05-07T04:42:40.550Z,101319.59
2023-05-07T04:47:44.337Z,101317.78
2023-05-07T04:52:47.265Z,101318.38
2023-05-07T04:57:52.473Z,101318.25
2023-05-07T05:02:55.248Z,101317.88
2023-05-07T05:07:59.127Z,101308.72
2023-05-07T05:13:03.642Z,101318.06
2023-05-07T05:18:07.467Z,101326.44
2023-05-07T05:23:10.384Z,101326.69
2023-05-07T05:28:15.785Z,101327.03
2023-05-07T05:33:18.562Z,101323.66
2023-05-07T05:38:21.766Z,101335.41
2023-05-07T05:43:25.947Z,101342.97
2023-05-07T05:48:29.053Z,101349.28
2023-05-07T05:53:31.952Z,101350.72
2023-05-07T05:58:36.242Z,101350.53
2023-05-07T06:03:42.250Z,101348.31
2023-05-07T06:08:49.941Z,101355.31
2023-05-07T06:13:58.971Z,101360.66
2023-05-07T06:19:02.930Z,101365.50
2023-05-07T06:24:05.996Z,101374.22
2023-05-07T06:29:14.022Z,101384.19
2023-05-07T06:34:18.835Z,101376.13
2023-05-07T06:39:22.242Z,101371.84
2023-05-07T06:44:26.203Z,101372.25
2023-05-07T06:49:41.205Z,101378.25
2023-05-07T06:54:44.164Z,101376.16
2023-05-07T06:59:49.444Z,101372.13
2023-05-07T07:04:52.539Z,101378.88
2023-05-07T07:09:56.427Z,101383.00
2023-05-07T07:15:00.639Z,101381.63
2023-05-07T07:20:04.677Z,101377.56
2023-05-07T07:25:07.824Z,101361.97
2023-05-07T07:30:12.763Z,101372.97
2023-05-07T07:35:17.883Z,101380.53
2023-05-07T07:40:21.940Z,101375.81
2023-05-07T07:45:26.668Z,101383.75
2023-05-07T07:50:43.563Z,101387.78
2023-05-07T07:55:48.818Z,101372.31
2023-05-07T08:00:56.874Z,101398.28
2023-05-07T08:06:00.554Z,101393.19
2023-05-07T08:11:03.970Z,101368.34
2023-05-07T08:16:10.456Z,101386.41
2023-05-07T08:21:14.012Z,101402.81
2023-05-07T08:26:16.745Z,101399.28
2023-05-07T08:31:21.531Z,101400.81
2023-05-07T08:36:24.413Z,101409.28
2023-05-07T08:41:27.139Z,101409.03
2023-05-07T08:46:33.788Z,101406.31
2023-05-07T08:51:37.740Z,101408.56
2023-05-07T08:56:41.573Z,101413.25
2023-05-07T09:01:45.731Z,101411.13
2023-05-07T09:06:49.052Z,101401.63
2023-05-07T09:11:59.534Z,101404.44
2023-05-07T09:17:04.349Z,101403.31
2023-05-07T12:26:29.884Z,101328.56
2023-05-07T12:31:33.892Z,101381.97
2023-05-07T12:36:44.565Z,101408.03
2023-05-07T12:41:57.033Z,101401.66
2023-05-07T12:47:03.704Z,101360.75
2023-05-07T12:52:07.437Z,101403.25
2023-05-07T12:57:12.580Z,101407.31
2023-05-07T13:02:16.979Z,101417.28
2023-05-07T13:07:21.454Z,101404.47
2023-05-07T13:12:26.211Z,101415.06
2023-05-07T13:17:31.882Z,101422.25
2023-05-07T13:22:35.699Z,101429.59
2023-05-07T13:27:40.759Z,101433.53
2023-05-07T13:32:45.107Z,101437.31
2023-05-07T13:37:49.441Z,101434.00
2023-05-07T13:42:54.682Z,101444.69
2023-05-07T13:48:00.142Z,101449.44
2023-05-07T13:53:04.000Z,101454.25
2023-05-07T13:58:08.758Z,101446.34
2023-05-07T14:03:12.697Z,101439.28
2023-05-07T14:08:16.410Z,101418.44
2023-05-07T14:13:21.693Z,101443.44
2023-05-07T14:18:38.678Z,101448.66
2023-05-07T14:23:45.355Z,101450.88
2023-05-07T14:28:50.360Z,101455.13
2023-05-07T14:33:59.409Z,101430.88
2023-05-07T14:39:10.423Z,101465.47
2023-05-07T14:44:14.648Z,101334.75
2023-05-07T14:49:18.982Z,101466.88
2023-05-07T14:54:30.989Z,101462.06
2023-05-07T14:59:38.215Z,101461.78
2023-05-07T15:04:47.488Z,101414.06
2023-05-07T15:09:51.325Z,101460.78
2023-05-07T15:14:57.280Z,101471.63
2023-05-07T15:19:59.935Z,101388.13
2023-05-07T15:25:06.542Z,101477.50
2023-05-07T15:30:15.147Z,101488.97
2023-05-07T15:35:22.998Z,101480.06
2023-05-07T15:40:25.952Z,101477.66
2023-05-07T15:45:31.454Z,101481.16
2023-05-07T15:50:36.557Z,101431.97
2023-05-07T15:55:44.343Z,101459.97
2023-05-07T16:00:49.704Z,101469.38
2023-05-07T16:05:52.296Z,101442.88
2023-05-07T16:10:55.210Z,101446.84
2023-05-07T16:16:00.303Z,101478.75
2023-05-07T16:21:03.056Z,101472.03
2023-05-07T16:26:06.184Z,101447.41
2023-05-07T16:31:10.849Z,101234.91
2023-05-07T16:36:13.724Z,101503.41
2023-05-07T16:41:16.397Z,101517.84
2023-05-07T16:46:20.582Z,101516.09
2023-05-07T16:51:24.530Z,101522.31
2023-05-07T16:56:27.206Z,101527.13
2023-05-07T17:01:32.604Z,101473.72
2023-05-07T17:06:35.395Z,101534.31
2023-05-07T17:11:38.102Z,101513.59
2023-05-07T17:16:42.330Z,101527.88
2023-05-07T17:21:50.448Z,101527.47
2023-05-07T17:26:53.349Z,101508.06
2023-05-07T17:31:57.589Z,101540.03
2023-05-07T17:37:00.403Z,101556.97
2023-05-07T17:42:07.035Z,101566.88
2023-05-07T17:47:14.178Z,101535.22
2023-05-07T17:52:21.035Z,101563.78
2023-05-07T17:57:24.731Z,101503.16
2023-05-07T18:02:41.943Z,101566.75
2023-05-07T18:07:44.801Z,101595.78
2023-05-07T18:12:48.206Z,101546.22
2023-05-07T18:17:52.709Z,101600.09
2023-05-07T18:22:55.460Z,101592.06
2023-05-07T18:27:58.461Z,101596.03
2023-05-07T18:33:02.906Z,101593.63
2023-05-07T18:38:06.429Z,101570.63
2023-05-07T18:43:09.221Z,101596.50
2023-05-07T18:48:13.493Z,101534.09
2023-05-07T18:53:16.880Z,101577.09
2023-05-07T18:58:20.457Z,101569.84
2023-05-07T19:03:26.214Z,101607.00
2023-05-07T19:08:32.262Z,101597.19
2023-05-07T19:13:35.689Z,101616.63
2023-05-07T19:18:41.492Z,101592.91
2023-05-07T19:23:44.208Z,101595.38
2023-05-07T19:28:48.574Z,101630.25
2023-05-07T19:34:01.450Z,101638.41
2023-05-07T19:39:04.147Z,101621.84
2023-05-07T19:44:06.811Z,101639.72
2023-05-07T19:49:14.154Z,101608.47
2023-05-07T19:54:16.862Z,101648.44
2023-05-07T19:59:20.244Z,101647.84
2023-05-07T20:04:29.161Z,101562.25
2023-05-07T20:09:32.281Z,101664.25
2023-05-07T20:14:37.390Z,101641.28
2023-05-07T20:19:41.382Z,101662.41
2023-05-07T20:24:44.007Z,101668.38
2023-05-07T20:29:47.798Z,101673.56
2023-05-07T20:34:52.434Z,101680.25
2023-05-07T20:39:55.257Z,101683.78
2023-05-07T20:44:58.216Z,101632.69
2023-05-07T20:50:03.532Z,101594.50
2023-05-07T20:55:10.018Z,101684.25
2023-05-07T21:00:15.800Z,101597.84
2023-05-07T21:05:22.804Z,101687.75
2023-05-07T21:10:26.590Z,101625.09
2023-05-07T21:15:29.670Z,101701.25
2023-05-07T21:20:34.032Z,101695.41
2023-05-07T21:25:39.426Z,101698.53
2023-05-07T21:30:42.132Z,101532.56
2023-05-07T21:35:46.467Z,101423.94
2023-05-07T21:40:49.173Z,101624.31
2023-05-07T21:45:51.917Z,101615.19
2023-05-07T21:51:03.409Z,101688.22
2023-05-07T21:57:27.284Z,101697.28
2023-05-07T22:01:42.962Z,101694.75
2023-05-07T22:06:46.975Z,101664.91
2023-05-07T22:11:51.824Z,101713.44
2023-05-07T22:16:54.722Z,101704.44
2023-05-07T22:22:01.186Z,101700.41
2023-05-07T22:27:05.256Z,101622.63
2023-05-07T22:32:12.424Z,101692.00
2023-05-07T22:37:16.818Z,101684.69
2023-05-07T22:42:19.740Z,101652.16
2023-05-07T22:47:23.600Z,101719.16
2023-05-07T22:52:30.175Z,101584.91
2023-05-07T22:57:42.979Z,101670.13
2023-05-07T23:02:45.854Z,101660.44
2023-05-07T23:07:50.509Z,101727.97
2023-05-07T23:12:53.815Z,101677.75
2023-05-07T23:17:59.355Z,101658.56
2023-05-07T23:23:05.890Z,101691.38
2023-05-07T23:28:08.984Z,101705.84
2023-05-07T23:33:11.961Z,101689.59
2023-05-07T23:38:16.053Z,101715.47
2023-05-07T23:43:18.878Z,101718.88
2023-05-07T23:48:22.076Z,101721.50
2023-05-07T23:53:26.228Z,101724.06
2023-05-07T23:58:29.070Z,101730.47
